Time;durP1;ratioP1;P1;durP2;ratioP2;P2;SDS_P1;SDS_P2;PMS_P1;PMS_P2;Temp;Humidity;BMP_temperature;BMP_pressure;BME280_temperature;BME280_humidity;BME280_pressure;Samples;Min_cycle;Max_cycle;Signal;HPM_P1;HPM_P2
2021/11/18 00:00:34;;;;;;;16.35;6.88;;;;;;;8.43;99.10;101308.84;5010165;28;20088;-69
2021/11/18 00:03:01;;;;;;;14.77;5.85;;;;;;;8.46;98.44;101312.41;5010515;28;20050;-70
2021/11/18 00:05:27;;;;;;;15.00;5.85;;;;;;;8.35;98.28;101301.47;5008983;28;20037;-72
2021/11/18 00:07:53;;;;;;;13.55;5.70;;;;;;;8.38;98.87;101306.81;5010221;28;20104;-69
2021/11/18 00:10:23;;;;;;;12.13;5.70;;;;;;;8.07;98.62;101240.69;5010537;28;20060;-71
2021/11/18 00:12:49;;;;;;;12.57;5.70;;;;;;;8.45;98.84;101303.81;5010979;28;20492;-71
2021/11/18 00:15:16;;;;;;;16.45;6.20;;;;;;;8.51;98.90;101319.66;5010918;28;20026;-68
2021/11/18 00:17:42;;;;;;;10.52;5.72;;;;;;;8.19;98.52;101261.13;5011063;28;20022;-68
2021/11/18 00:20:13;;;;;;;10.27;6.57;;;;;;;8.53;99.16;101320.59;5010984;28;20049;-69
2021/11/18 00:22:40;;;;;;;11.73;6.07;;;;;;;8.48;100.00;101323.72;5010486;28;20030;-69
2021/11/18 00:25:08;;;;;;;13.73;6.80;;;;;;;8.39;100.00;101314.63;5010951;28;20030;-70
2021/11/18 00:27:33;;;;;;;10.90;5.80;;;;;;;8.36;99.76;101324.75;5012288;28;20030;-68
2021/11/18 00:29:59;;;;;;;16.08;7.00;;;;;;;8.39;99.23;101334.31;5013751;28;20136;-71
2021/11/18 00:32:25;;;;;;;20.70;12.55;;;;;;;8.43;98.67;101321.72;5013771;28;20022;-71
2021/11/18 00:34:50;;;;;;;16.38;11.63;;;;;;;8.43;98.45;101331.13;5013472;28;20024;-71
2021/11/18 00:37:15;;;;;;;11.77;8.82;;;;;;;8.46;99.88;101336.50;5012865;28;20026;-72
2021/11/18 00:39:41;;;;;;;12.50;6.65;;;;;;;8.35;100.00;101311.75;5012945;28;20084;-71
2021/11/18 00:42:07;;;;;;;10.57;6.55;;;;;;;8.29;100.00;101302.00;5013477;28;20026;-73
2021/11/18 00:44:32;;;;;;;15.82;6.90;;;;;;;8.38;100.00;101329.97;5013122;28;20109;-71
2021/11/18 00:46:58;;;;;;;14.68;7.72;;;;;;;8.40;100.00;101318.09;5012964;28;20026;-71
2021/11/18 00:49:23;;;;;;;18.23;7.45;;;;;;;8.05;100.00;101256.03;5013073;28;20080;-70
2021/11/18 00:51:49;;;;;;;17.95;7.15;;;;;;;8.23;100.00;101292.22;5012815;28;20530;-71
2021/11/18 00:54:15;;;;;;;12.30;7.35;;;;;;;8.32;100.00;101316.75;5012102;28;20026;-72
2021/11/18 00:56:42;;;;;;;11.18;7.13;;;;;;;7.86;100.00;101263.41;5013118;28;20407;-70
2021/11/18 00:59:08;;;;;;;23.15;7.55;;;;;;;7.98;100.00;101283.84;5012903;28;20057;-68
2021/11/18 01:01:43;;;;;;;12.48;7.13;;;;;;;7.91;100.00;101306.63;5013018;28;20030;-73
2021/11/18 01:04:15;;;;;;;13.90;8.48;;;;;;;7.88;100.00;101314.13;5013034;28;20046;-73
2021/11/18 01:06:40;;;;;;;16.00;8.90;;;;;;;7.92;100.00;101316.13;5012143;28;20084;-72
2021/11/18 01:09:06;;;;;;;15.90;9.18;;;;;;;7.67;100.00;101253.72;5013012;28;20026;-71
2021/11/18 01:11:34;;;;;;;15.05;8.80;;;;;;;8.06;100.00;101321.19;5012527;28;20041;-70
2021/11/18 01:14:03;;;;;;;17.77;11.07;;;;;;;8.02;100.00;101320.13;5012904;28;20156;-67
2021/11/18 01:16:31;;;;;;;20.38;12.02;;;;;;;7.90;100.00;101320.28;5012890;28;20026;-69
2021/11/18 01:18:57;;;;;;;17.95;10.85;;;;;;;7.97;100.00;101318.06;5012380;28;20030;-71
2021/11/18 01:21:23;;;;;;;19.25;9.68;;;;;;;7.93;100.00;101301.56;5012687;28;20041;-67
2021/11/18 01:23:49;;;;;;;16.27;9.27;;;;;;;8.12;100.00;101318.13;5012592;28;20049;-69
2021/11/18 01:26:19;;;;;;;18.02;10.00;;;;;;;8.02;100.00;101296.97;5013372;28;20088;-68
2021/11/18 01:28:45;;;;;;;20.17;10.95;;;;;;;8.15;100.00;101308.00;5011978;28;20037;-67
2021/11/18 01:31:10;;;;;;;17.13;10.48;;;;;;;8.11;100.00;101312.06;5012643;28;20148;-71
2021/11/18 01:33:38;;;;;;;23.83;10.30;;;;;;;7.93;100.00;101306.72;5011389;28;20491;-69
2021/11/18 01:36:05;;;;;;;17.90;10.05;;;;;;;8.05;100.00;101314.25;5012297;28;20025;-68
2021/11/18 01:38:32;;;;;;;19.88;9.43;;;;;;;8.10;100.00;101298.34;5012442;28;20487;-68
2021/11/18 01:41:01;;;;;;;19.27;10.35;;;;;;;8.21;100.00;101314.41;5011903;28;20109;-68
2021/11/18 01:43:30;;;;;;;14.70;9.73;;;;;;;8.28;100.00;101305.38;5011932;28;20416;-69
2021/11/18 01:45:57;;;;;;;18.67;10.15;;;;;;;8.19;100.00;101285.13;5012308;28;20032;-69
2021/11/18 01:48:23;;;;;;;14.43;8.93;;;;;;;7.74;100.00;101207.91;5011970;28;20038;-68
2021/11/18 01:50:51;;;;;;;14.70;8.85;;;;;;;8.28;100.00;101313.09;5011394;28;20014;-68
2021/11/18 01:53:36;;;;;;;19.00;10.07;;;;;;;8.25;100.00;101308.66;5008879;28;20128;-69
2021/11/18 01:56:05;;;;;;;16.73;9.65;;;;;;;8.02;100.00;101291.81;5011674;28;20029;-71
2021/11/18 01:58:30;;;;;;;14.05;8.88;;;;;;;8.08;100.00;101302.47;5011757;28;20025;-70
2021/11/18 02:00:58;;;;;;;16.92;9.60;;;;;;;8.14;100.00;101307.13;5011746;28;20026;-70
2021/11/18 02:03:23;;;;;;;15.88;8.93;;;;;;;7.96;100.00;101255.47;5010297;28;20049;-69
2021/11/18 02:06:00;;;;;;;13.88;8.27;;;;;;;8.15;100.00;101308.00;5009209;28;20034;-67
2021/11/18 02:08:26;;;;;;;17.05;7.88;;;;;;;8.03;100.00;101303.03;5008821;28;20749;-68
2021/11/18 02:10:56;;;;;;;17.10;8.68;;;;;;;8.00;100.00;101298.59;5008104;28;20061;-67
2021/11/18 02:13:22;;;;;;;14.57;8.02;;;;;;;8.07;100.00;101299.81;5009121;28;20480;-68
2021/11/18 02:15:54;;;;;;;16.73;7.80;;;;;;;8.14;100.00;101303.66;5009341;28;20030;-70
2021/11/18 02:18:33;;;;;;;17.10;8.63;;;;;;;8.15;100.00;101292.56;5009929;28;20120;-72
2021/11/18 02:21:09;;;;;;;13.80;7.30;;;;;;;8.25;100.00;101300.06;5008493;28;20495;-68
2021/11/18 02:23:40;;;;;;;14.27;7.65;;;;;;;8.29;100.00;101296.88;5007928;28;20033;-70
2021/11/18 02:26:06;;;;;;;15.15;7.78;;;;;;;8.31;100.00;101296.94;5010008;28;20034;-66
2021/11/18 02:28:38;;;;;;;15.23;7.72;;;;;;;8.23;100.00;101286.22;5010615;28;20022;-70
2021/11/18 02:31:19;;;;;;;18.25;7.82;;;;;;;8.27;100.00;101293.31;5006408;28;20037;-74
2021/11/18 02:33:44;;;;;;;14.05;7.38;;;;;;;8.31;100.00;101296.94;5009685;28;20037;-66
2021/11/18 02:36:10;;;;;;;11.95;7.55;;;;;;;8.28;100.00;101304.50;5008091;28;20025;-70
2021/11/18 02:38:35;;;;;;;16.08;8.88;;;;;;;8.25;100.00;101306.06;5008582;28;20045;-70
2021/11/18 02:41:01;;;;;;;13.48;7.35;;;;;;;8.23;100.00;101307.66;5008180;28;20084;-67
2021/11/18 02:43:28;;;;;;;12.23;7.57;;;;;;;8.20;100.00;101306.59;5007550;28;20506;-71
2021/11/18 02:45:53;;;;;;;14.07;7.93;;;;;;;7.73;100.00;101230.94;5007816;28;20048;-68
2021/11/18 02:48:20;;;;;;;16.27;7.63;;;;;;;8.22;100.00;101305.00;5007932;28;20034;-70
2021/11/18 02:50:50;;;;;;;13.23;8.43;;;;;;;8.12;100.00;101319.00;5009110;28;20411;-69
2021/11/18 02:53:16;;;;;;;17.15;8.40;;;;;;;7.99;100.00;101312.22;5009705;28;20026;-68
2021/11/18 02:55:44;;;;;;;17.40;8.68;;;;;;;7.92;100.00;101313.56;5008660;28;20484;-72
2021/11/18 02:58:11;;;;;;;14.20;8.32;;;;;;;7.93;100.00;101317.88;4991770;28;20045;-68
2021/11/18 03:00:42;;;;;;;16.45;8.70;;;;;;;7.45;100.00;101230.16;5004796;28;20451;-70
2021/11/18 03:03:07;;;;;;;13.45;8.23;;;;;;;7.81;100.00;101313.66;5010405;28;20443;-71
2021/11/18 03:05:33;;;;;;;17.70;9.63;;;;;;;7.87;100.00;101304.63;5011490;28;20093;-69
2021/11/18 03:07:59;;;;;;;14.40;9.00;;;;;;;7.29;100.00;101204.31;5010830;28;20551;-70
2021/11/18 03:10:25;;;;;;;13.65;8.57;;;;;;;7.86;100.00;101294.25;5011352;28;20044;-72
2021/11/18 03:12:51;;;;;;;13.48;9.30;;;;;;;7.37;100.00;101207.34;5011441;28;20487;-71
2021/11/18 03:15:18;;;;;;;22.35;10.65;;;;;;;7.88;100.00;101298.72;5011288;28;20057;-69
2021/11/18 03:17:43;;;;;;;19.05;12.73;;;;;;;7.90;100.00;101297.13;5011036;28;20022;-71
2021/11/18 03:20:13;;;;;;;15.93;9.65;;;;;;;7.49;100.00;101223.53;5011510;28;20030;-70
2021/11/18 03:22:40;;;;;;;15.25;9.60;;;;;;;7.48;100.00;101213.13;4988911;28;20046;-67
2021/11/18 03:25:06;;;;;;;19.38;9.45;;;;;;;7.72;100.00;101244.59;4960512;28;20121;-69
2021/11/18 03:27:32;;;;;;;15.38;7.68;;;;;;;8.12;100.00;101302.69;4968412;28;20057;-70
2021/11/18 03:29:57;;;;;;;14.88;8.52;;;;;;;8.06;100.00;101304.09;4955102;28;20047;-71
2021/11/18 03:32:23;;;;;;;16.23;8.10;;;;;;;8.08;100.00;101307.63;4984694;28;20303;-68
2021/11/18 03:34:49;;;;;;;16.95;7.88;;;;;;;8.08;100.00;101306.75;4968817;28;20078;-74
2021/11/18 03:37:14;;;;;;;15.82;6.93;;;;;;;7.93;100.00;101278.44;4968846;28;20126;-71
2021/11/18 03:39:40;;;;;;;11.82;6.78;;;;;;;7.96;100.00;101295.72;4968899;28;20035;-70
2021/11/18 03:42:08;;;;;;;14.82;7.72;;;;;;;8.05;100.00;101303.97;4971423;28;20034;-70
2021/11/18 03:44:34;;;;;;;13.55;7.65;;;;;;;8.02;100.00;101306.38;4968685;28;20033;-69
2021/11/18 03:47:07;;;;;;;13.82;7.60;;;;;;;8.00;100.00;101313.09;4969225;28;20117;-71
2021/11/18 03:49:34;;;;;;;14.80;7.85;;;;;;;8.02;100.00;101308.94;4969683;28;20038;-70
2021/11/18 03:52:02;;;;;;;14.63;7.78;;;;;;;7.96;100.00;101283.75;4969804;28;20054;-67
2021/11/18 03:54:30;;;;;;;13.70;7.47;;;;;;;8.12;100.00;101312.97;4986165;28;20172;-69
2021/11/18 03:56:56;;;;;;;12.68;7.78;;;;;;;8.03;100.00;101313.31;5010245;28;20030;-68
2021/11/18 03:59:25;;;;;;;13.65;7.50;;;;;;;7.90;100.00;101294.56;5009303;28;20026;-70
2021/11/18 04:01:52;;;;;;;14.33;7.57;;;;;;;8.04;100.00;101315.09;5010516;28;20034;-70
2021/11/18 04:04:22;;;;;;;14.43;7.13;;;;;;;7.83;100.00;101274.41;5014914;28;20293;-70
2021/11/18 04:06:48;;;;;;;10.77;7.40;;;;;;;8.02;100.00;101309.81;5014415;28;20037;-69
2021/11/18 04:09:15;;;;;;;13.93;7.60;;;;;;;7.87;100.00;101309.78;5014314;28;20120;-70
2021/11/18 04:11:42;;;;;;;14.13;8.45;;;;;;;7.24;100.00;101239.06;5014687;28;20041;-70
2021/11/18 04:14:09;;;;;;;15.77;8.65;;;;;;;7.48;100.00;101311.66;5014474;28;20487;-67
2021/11/18 04:16:35;;;;;;;16.10;9.18;;;;;;;7.01;100.00;101224.78;5014432;28;20044;-69
2021/11/18 04:19:00;;;;;;;15.27;10.07;;;;;;;7.57;100.00;101317.38;5014258;28;20117;-69
2021/11/18 04:21:31;;;;;;;17.10;10.25;;;;;;;7.57;100.00;101321.63;5014000;28;20475;-71
2021/11/18 04:23:57;;;;;;;18.45;10.75;;;;;;;7.47;100.00;101314.16;5014323;28;20033;-70
2021/11/18 04:26:23;;;;;;;17.63;10.35;;;;;;;7.13;100.00;101254.69;5014057;28;20410;-68
2021/11/18 04:28:49;;;;;;;17.02;11.18;;;;;;;7.26;100.00;101256.38;5014413;28;20784;-68
2021/11/18 04:31:17;;;;;;;17.67;11.13;;;;;;;7.74;100.00;101338.13;5014389;28;20108;-70
2021/11/18 04:33:42;;;;;;;20.55;12.02;;;;;;;7.81;100.00;101326.53;5013919;28;20034;-66
2021/11/18 04:36:10;;;;;;;19.80;10.52;;;;;;;7.88;100.00;101329.56;5014356;28;20025;-67
2021/11/18 04:38:36;;;;;;;16.63;10.60;;;;;;;7.43;100.00;101236.88;5013960;28;20112;-70
2021/11/18 04:41:04;;;;;;;16.45;9.95;;;;;;;8.03;100.00;101323.59;5013466;28;20121;-71
2021/11/18 04:43:30;;;;;;;21.08;11.38;;;;;;;8.08;100.00;101329.91;5013705;28;20033;-69
2021/11/18 04:45:56;;;;;;;16.77;11.13;;;;;;;7.56;100.00;101233.38;5012669;28;20069;-67
2021/11/18 04:48:22;;;;;;;16.85;10.98;;;;;;;8.01;100.00;101332.88;5014138;28;20030;-69
2021/11/18 04:50:48;;;;;;;20.15;11.30;;;;;;;7.50;100.00;101233.00;5015129;28;20140;-67
2021/11/18 04:53:15;;;;;;;15.38;11.05;;;;;;;7.98;100.00;101327.56;5014722;28;20096;-71
2021/11/18 04:55:41;;;;;;;17.05;11.18;;;;;;;7.46;100.00;101249.00;5013780;28;20030;-69
2021/11/18 04:58:08;;;;;;;22.65;12.07;;;;;;;7.87;100.00;101327.78;5013952;28;20033;-68
2021/11/18 05:00:45;;;;;;;18.25;12.10;;;;;;;7.76;100.00;101321.09;5014039;28;20026;-69
2021/11/18 05:03:11;;;;;;;22.63;12.18;;;;;;;7.78;100.00;101329.78;5013617;28;20049;-69
2021/11/18 05:05:37;;;;;;;21.15;12.38;;;;;;;7.75;100.00;101334.72;5018140;28;20555;-69
2021/11/18 05:08:03;;;;;;;25.67;12.65;;;;;;;7.64;100.00;101316.09;5015591;28;20098;-68
2021/11/18 05:10:29;;;;;;;22.88;12.05;;;;;;;7.65;100.00;101317.88;5011944;28;20032;-69
2021/11/18 05:12:55;;;;;;;20.25;11.07;;;;;;;7.69;100.00;101322.41;5012973;28;20030;-69
2021/11/18 05:15:23;;;;;;;18.25;11.75;;;;;;;7.78;100.00;101345.22;5013123;28;20030;-69
2021/11/18 05:17:49;;;;;;;22.38;11.88;;;;;;;7.80;100.00;101351.34;5012972;28;20060;-70
2021/11/18 05:20:18;;;;;;;23.58;12.73;;;;;;;7.72;100.00;101337.13;5013298;28;20033;-70
2021/11/18 05:22:44;;;;;;;18.70;12.77;;;;;;;7.69;100.00;101329.19;5011424;28;20029;-72
2021/11/18 05:25:11;;;;;;;28.05;17.88;;;;;;;7.84;100.00;101358.44;5010862;28;20368;-70
2021/11/18 05:27:36;;;;;;;113.25;64.05;;;;;;;7.81;100.00;101368.53;5011534;28;20034;-67
2021/11/18 05:30:05;;;;;;;30.95;23.75;;;;;;;7.76;100.00;101359.63;5012332;28;20531;-69
2021/11/18 05:32:30;;;;;;;33.13;19.45;;;;;;;7.54;100.00;101340.31;5012926;28;20056;-69
2021/11/18 05:34:56;;;;;;;35.53;21.85;;;;;;;7.59;100.00;101361.16;5012969;28;20034;-70
2021/11/18 05:37:21;;;;;;;204.02;128.75;;;;;;;7.54;100.00;101358.31;5012861;28;20052;-69
2021/11/18 05:39:47;;;;;;;54.72;39.75;;;;;;;7.54;100.00;101362.53;5013050;28;20029;-69
2021/11/18 05:42:12;;;;;;;41.13;36.90;;;;;;;7.53;100.00;101341.09;5012764;28;20030;-69
2021/11/18 05:44:38;;;;;;;17.58;12.68;;;;;;;6.88;100.00;101243.63;4994134;28;20058;-70
2021/11/18 05:47:04;;;;;;;16.33;12.35;;;;;;;7.05;100.00;101296.06;4993840;28;20027;-71
2021/11/18 05:49:29;;;;;;;24.77;12.20;;;;;;;7.34;100.00;101364.75;4993606;28;20022;-69
2021/11/18 05:51:55;;;;;;;17.15;12.52;;;;;;;6.55;100.00;101243.25;4993055;28;20028;-70
2021/11/18 05:54:20;;;;;;;20.38;14.38;;;;;;;7.14;100.00;101355.75;4993224;28;20104;-69
2021/11/18 05:56:46;;;;;;;28.85;14.55;;;;;;;7.39;100.00;101380.44;4992473;28;20042;-69
2021/11/18 05:59:13;;;;;;;21.85;12.38;;;;;;;7.35;100.00;101365.63;5002432;28;20038;-69
2021/11/18 06:01:39;;;;;;;20.52;12.55;;;;;;;7.61;100.00;101385.25;5012732;28;20026;-69
2021/11/18 06:04:05;;;;;;;23.00;12.98;;;;;;;7.67;100.00;101388.22;5011623;28;20049;-69
2021/11/18 06:06:31;;;;;;;22.73;12.82;;;;;;;7.69;100.00;101398.59;5012591;28;20026;-69
2021/11/18 06:09:02;;;;;;;16.85;11.55;;;;;;;7.59;100.00;101382.59;5012905;28;20452;-69
2021/11/18 06:11:34;;;;;;;21.17;11.30;;;;;;;7.73;100.00;101396.31;5012636;28;20373;-71
2021/11/18 06:14:00;;;;;;;26.50;13.38;;;;;;;7.62;100.00;101356.22;5012712;28;20026;-71
2021/11/18 06:16:26;;;;;;;20.23;13.20;;;;;;;7.90;100.00;101399.97;5012546;28;20490;-71
2021/11/18 06:18:58;;;;;;;21.67;13.73;;;;;;;7.93;100.00;101391.56;5012703;28;20034;-70
2021/11/18 06:21:24;;;;;;;20.05;12.77;;;;;;;7.94;100.00;101401.94;5012657;28;20026;-69
2021/11/18 06:23:50;;;;;;;17.85;12.18;;;;;;;7.89;100.00;101405.91;5008738;28;20041;-70
2021/11/18 06:26:17;;;;;;;21.73;12.95;;;;;;;7.94;100.00;101412.22;5007741;28;20037;-70
2021/11/18 06:28:44;;;;;;;31.73;20.20;;;;;;;7.96;100.00;101411.44;5010043;28;20030;-71
2021/11/18 06:31:11;;;;;;;29.65;20.13;;;;;;;7.94;100.00;101422.50;5002734;28;20492;-72
2021/11/18 06:33:37;;;;;;;27.83;17.48;;;;;;;7.14;100.00;101299.25;5006455;28;20150;-68
2021/11/18 06:36:04;;;;;;;21.88;15.38;;;;;;;7.74;100.00;101403.25;5009540;28;20117;-69
2021/11/18 06:38:30;;;;;;;25.63;16.17;;;;;;;7.63;100.00;101391.41;5011716;28;20103;-69
2021/11/18 06:40:56;;;;;;;21.75;16.63;;;;;;;7.82;100.00;101408.88;5011420;28;20056;-71
2021/11/18 06:43:23;;;;;;;19.25;13.95;;;;;;;7.89;100.00;101413.63;5011493;28;20118;-69
2021/11/18 06:45:49;;;;;;;24.50;15.90;;;;;;;7.97;100.00;101420.94;5011616;28;20152;-71
2021/11/18 06:48:17;;;;;;;29.08;21.52;;;;;;;7.92;100.00;101416.41;5011395;28;20034;-70
2021/11/18 06:50:43;;;;;;;32.80;19.80;;;;;;;7.97;100.00;101408.94;5009283;28;20033;-71
2021/11/18 06:53:10;;;;;;;30.83;19.90;;;;;;;7.88;100.00;101393.84;5011449;28;20069;-71
2021/11/18 06:55:35;;;;;;;28.98;22.50;;;;;;;7.92;100.00;101390.69;5011247;28;20113;-71
2021/11/18 06:58:01;;;;;;;29.23;19.88;;;;;;;8.04;99.60;101416.25;5011468;28;20117;-73
2021/11/18 07:00:27;;;;;;;31.85;21.52;;;;;;;7.98;99.61;101415.00;5011776;28;20022;-69
2021/11/18 07:02:52;;;;;;;30.35;21.27;;;;;;;8.00;99.58;101428.81;5011182;28;20458;-71
2021/11/18 07:05:19;;;;;;;34.80;22.90;;;;;;;8.00;99.87;101421.09;5010122;28;20026;-69
2021/11/18 07:07:44;;;;;;;30.20;22.23;;;;;;;8.05;99.53;101435.13;5011402;28;20053;-72
2021/11/18 07:10:11;;;;;;;35.28;21.67;;;;;;;7.97;99.74;101431.22;5011571;28;20476;-70
2021/11/18 07:12:36;;;;;;;31.20;21.67;;;;;;;7.86;99.59;101423.72;5011640;28;20038;-72
2021/11/18 07:17:04;;;;;;;34.13;22.75;;;;;;;7.71;99.29;101435.56;5079535;28;20130;-70
2021/11/18 07:19:31;;;;;;;32.42;21.13;;;;;;;7.76;98.56;101434.19;5068706;28;20221;-70
2021/11/18 07:21:57;;;;;;;30.38;19.73;;;;;;;7.68;98.40;101422.53;5062130;28;20033;-70
2021/11/18 07:24:23;;;;;;;30.65;21.30;;;;;;;7.85;97.84;101436.44;5068752;28;20486;-70
2021/11/18 07:26:48;;;;;;;38.63;25.27;;;;;;;7.87;97.46;101422.03;5067388;28;20112;-70
2021/11/18 07:29:13;;;;;;;29.90;23.73;;;;;;;7.93;97.75;101424.97;5068794;28;20024;-70
2021/11/18 07:31:39;;;;;;;28.98;19.67;;;;;;;8.02;nan;101434.97;5068464;28;20497;-70
2021/11/18 07:34:06;;;;;;;30.75;19.30;;;;;;;7.64;96.32;101364.00;5068348;28;20093;-70
2021/11/18 07:36:31;;;;;;;35.08;21.17;;;;;;;8.00;95.94;101432.28;5068619;28;20028;-71
2021/11/18 07:38:57;;;;;;;29.80;18.85;;;;;;;7.93;96.95;101433.56;5068614;28;20021;-70
2021/11/18 07:41:23;;;;;;;29.30;18.55;;;;;;;8.03;96.22;101429.03;5068575;28;20413;-70
2021/11/18 07:43:49;;;;;;;60.25;36.28;;;;;;;8.14;94.97;101429.66;5068130;28;20028;-70
2021/11/18 07:46:16;;;;;;;31.25;23.23;;;;;;;8.16;93.96;101428.09;5068039;28;20020;-70
2021/11/18 07:48:47;;;;;;;25.95;17.80;;;;;;;8.24;93.39;101427.78;5052766;28;20091;-70
2021/11/18 07:51:15;;;;;;;29.23;17.35;;;;;;;8.28;92.15;101430.56;5048120;28;20075;-70
2021/11/18 07:53:42;;;;;;;28.05;16.35;;;;;;;8.29;92.13;101428.06;5048164;28;20033;-70
2021/11/18 07:56:08;;;;;;;28.35;17.40;;;;;;;8.22;92.80;101431.06;5047901;28;20033;-70
2021/11/18 07:58:33;;;;;;;27.25;17.65;;;;;;;8.19;93.64;101429.19;5047964;28;20044;-70
2021/11/18 08:00:59;;;;;;;31.88;18.30;;;;;;;8.32;92.61;101432.50;5047771;28;20412;-70
2021/11/18 08:03:28;;;;;;;28.00;17.15;;;;;;;7.98;94.39;101418.44;5048165;28;20033;-70
2021/11/18 08:05:54;;;;;;;24.95;17.17;;;;;;;8.08;94.49;101415.66;5048076;28;20112;-70
2021/11/18 08:08:19;;;;;;;27.85;17.42;;;;;;;8.09;94.70;101419.13;5047803;28;20487;-70
2021/11/18 08:10:44;;;;;;;30.50;16.15;;;;;;;8.39;93.99;101422.69;5047731;28;20071;-70
2021/11/18 08:13:10;;;;;;;25.75;17.20;;;;;;;8.58;93.71;101414.44;5047877;28;20049;-70
2021/11/18 08:15:55;;;;;;;29.02;15.20;;;;;;;8.67;91.29;101418.34;5039586;28;20101;-70
2021/11/18 08:18:21;;;;;;;28.05;16.00;;;;;;;8.57;92.30;101407.53;4966890;28;20046;-70
2021/11/18 08:20:46;;;;;;;22.85;15.80;;;;;;;8.65;91.57;101414.78;4966886;28;20039;-70
2021/11/18 08:23:12;;;;;;;31.02;15.82;;;;;;;8.69;91.22;101414.19;4966904;28;20046;-70
2021/11/18 08:25:38;;;;;;;22.63;15.40;;;;;;;8.89;90.27;101410.22;4966716;28;20031;-69
2021/11/18 08:28:05;;;;;;;28.98;16.50;;;;;;;8.94;91.29;101411.38;4954941;28;20165;-69
2021/11/18 08:30:33;;;;;;;26.77;15.32;;;;;;;9.06;90.59;101399.22;4938052;29;20126;-70
2021/11/18 08:33:02;;;;;;;29.43;16.17;;;;;;;9.00;90.67;101398.84;4956314;28;20035;-69
2021/11/18 08:35:31;;;;;;;24.10;15.05;;;;;;;8.95;90.31;101408.00;4973079;28;20038;-69
2021/11/18 08:38:08;;;;;;;23.98;15.50;;;;;;;9.02;91.35;101406.66;4973101;28;20047;-70
2021/11/18 08:40:37;;;;;;;22.85;14.80;;;;;;;9.17;89.96;101402.44;4972854;28;20116;-70
2021/11/18 08:43:06;;;;;;;28.08;15.57;;;;;;;9.29;89.21;101407.38;4973075;28;20042;-70
2021/11/18 08:45:35;;;;;;;26.53;15.83;;;;;;;9.39;88.92;101403.63;4924785;28;20133;-70
2021/11/18 08:48:04;;;;;;;28.70;15.05;;;;;;;9.50;88.66;101396.53;4972975;28;20269;-70
2021/11/18 08:50:30;;;;;;;24.83;15.70;;;;;;;9.46;88.56;101394.56;5032947;28;20037;-70
2021/11/18 08:52:55;;;;;;;28.02;16.50;;;;;;;9.57;88.55;101392.59;5033756;28;20110;-69
2021/11/18 08:55:26;;;;;;;30.77;16.77;;;;;;;9.50;87.40;101392.25;5033798;28;20025;-70
2021/11/18 08:57:53;;;;;;;26.80;16.05;;;;;;;9.67;87.47;101392.28;5033087;28;20112;-70
2021/11/18 09:00:27;;;;;;;28.52;14.95;;;;;;;9.84;85.41;101382.91;5033528;28;20418;-70
2021/11/18 09:02:55;;;;;;;31.13;16.15;;;;;;;9.92;85.76;101391.97;4998770;28;20037;-70
2021/11/18 09:05:25;;;;;;;27.88;17.23;;;;;;;10.22;82.50;101386.69;5033417;28;20118;-70
2021/11/18 09:07:51;;;;;;;24.08;15.80;;;;;;;10.33;81.35;101384.63;5033481;28;20112;-70
2021/11/18 09:10:17;;;;;;;28.65;15.25;;;;;;;10.00;83.85;101377.78;4998832;28;20463;-70
2021/11/18 09:12:44;;;;;;;26.00;16.40;;;;;;;10.01;82.81;101361.50;5033545;28;20087;-70
2021/11/18 09:15:21;;;;;;;27.17;16.35;;;;;;;10.15;82.16;101357.06;5038067;28;20494;-70
2021/11/18 09:17:48;;;;;;;25.10;15.30;;;;;;;10.24;82.26;101355.78;5053267;28;20028;-70
2021/11/18 09:20:16;;;;;;;32.78;16.85;;;;;;;10.29;82.22;101369.81;5052557;28;20043;-70
2021/11/18 09:22:42;;;;;;;28.85;16.27;;;;;;;10.45;85.93;101374.13;5043014;28;20082;-70
2021/11/18 09:25:10;;;;;;;27.35;15.77;;;;;;;10.47;83.50;101381.13;5033153;28;20520;-70
2021/11/18 09:27:44;;;;;;;30.75;16.45;;;;;;;10.49;83.55;101374.38;5033330;28;20068;-70
2021/11/18 09:30:18;;;;;;;28.45;16.45;;;;;;;10.45;82.37;101364.66;5033114;28;20029;-70
2021/11/18 09:32:43;;;;;;;30.58;16.77;;;;;;;10.68;81.57;101368.44;5032853;28;20122;-70
2021/11/18 09:35:13;;;;;;;29.70;17.17;;;;;;;10.54;80.85;101329.81;5033001;28;20076;-70
2021/11/18 09:37:38;;;;;;;30.77;17.77;;;;;;;10.84;79.17;101370.09;5032843;28;20034;-70
2021/11/18 09:40:08;;;;;;;34.05;16.98;;;;;;;10.77;78.83;101359.41;5035525;28;20025;-70
2021/11/18 09:42:56;;;;;;;29.02;17.00;;;;;;;10.75;79.91;101351.53;5036312;28;20030;-70
2021/11/18 09:45:26;;;;;;;22.27;13.23;;;;;;;10.89;77.07;101359.09;5032573;28;20026;-70
2021/11/18 09:48:22;;;;;;;20.17;13.55;;;;;;;11.03;76.26;101352.03;5032748;28;20483;-70
2021/11/18 09:50:50;;;;;;;20.35;13.93;;;;;;;11.13;74.27;101359.47;5017586;28;20405;-70
2021/11/18 09:53:24;;;;;;;20.45;14.52;;;;;;;10.94;75.51;101360.22;5052241;28;20032;-70
2021/11/18 09:55:55;;;;;;;22.30;15.57;;;;;;;11.08;75.26;101351.47;5052818;28;20053;-70
2021/11/18 09:58:39;;;;;;;23.98;14.52;;;;;;;11.21;73.83;101344.31;5050917;28;20025;-71
2021/11/18 10:01:32;;;;;;;21.40;14.23;;;;;;;11.29;73.31;101338.69;5035936;28;20141;-70
2021/11/18 10:04:22;;;;;;;21.02;14.82;;;;;;;11.19;73.02;101340.75;5052382;28;20052;-70
2021/11/18 10:06:52;;;;;;;;;;;;;;;11.32;75.47;101341.41;5052895;28;20033;-70
2021/11/18 10:09:43;;;;;;;23.70;15.93;;;;;;;11.51;73.11;101337.13;5052802;28;19912;-70
2021/11/18 10:12:25;;;;;;;25.17;15.05;;;;;;;11.44;73.33;101335.97;5052123;28;20398;-70
2021/11/18 10:15:01;;;;;;;24.25;14.07;;;;;;;11.59;72.21;101330.63;5052600;28;20054;-70
2021/11/18 10:17:37;;;;;;;23.85;14.38;;;;;;;11.16;74.84;101331.16;5052338;28;20029;-70
2021/11/18 10:20:06;;;;;;;23.98;15.27;;;;;;;11.39;74.10;101308.09;5034305;28;20119;-70
2021/11/18 10:22:36;;;;;;;23.35;15.70;;;;;;;11.51;73.65;101303.50;5052750;28;20068;-70
2021/11/18 10:25:07;;;;;;;22.05;14.98;;;;;;;11.35;72.79;101317.41;5051982;28;20033;-70
2021/11/18 10:27:40;;;;;;;25.08;16.45;;;;;;;11.52;72.82;101328.56;5052210;28;20028;-70
2021/11/18 10:30:08;;;;;;;24.50;17.15;;;;;;;11.51;73.59;101313.84;5052229;28;20024;-70
2021/11/18 10:33:09;;;;;;;27.25;16.70;;;;;;;11.78;71.41;101310.78;5052270;28;20078;-71
2021/11/18 10:35:53;;;;;;;24.58;15.30;;;;;;;11.53;72.20;101313.94;4951786;29;20564;-70
2021/11/18 10:38:21;;;;;;;23.52;15.70;;;;;;;11.11;73.84;101268.03;4952204;29;20552;-71
2021/11/18 10:40:54;;;;;;;22.02;16.17;;;;;;;11.46;73.63;101313.66;4951778;29;20044;-70
2021/11/18 10:43:19;;;;;;;23.25;15.63;;;;;;;11.63;72.22;101310.97;4951743;29;20027;-70
2021/11/18 10:46:10;;;;;;;22.23;15.15;;;;;;;11.53;71.66;101312.22;4951422;29;20039;-71
2021/11/18 10:48:41;;;;;;;28.10;15.30;;;;;;;11.47;72.88;101314.53;4913680;29;20048;-70
2021/11/18 10:51:10;;;;;;;20.35;15.20;;;;;;;11.62;72.65;101304.88;4913276;29;20156;-70
2021/11/18 10:54:10;;;;;;;20.42;13.68;;;;;;;11.36;72.11;101315.72;4913325;29;20087;-70
2021/11/18 10:56:38;;;;;;;22.70;15.13;;;;;;;11.35;74.18;101298.44;4894583;29;20499;-70
2021/11/18 10:59:30;;;;;;;22.60;12.70;;;;;;;11.12;71.95;101299.09;4894620;29;20604;-70
2021/11/18 11:01:57;;;;;;;18.75;13.50;;;;;;;11.24;73.09;101297.91;4894599;29;20063;-70
2021/11/18 11:04:45;;;;;;;20.58;13.52;;;;;;;11.56;71.22;101283.03;4878793;29;20041;-71
2021/11/18 11:07:12;;;;;;;22.23;15.63;;;;;;;11.55;70.05;101265.75;4894427;29;20116;-70
2021/11/18 11:09:44;;;;;;;25.63;16.25;;;;;;;11.46;72.30;101277.47;4894525;29;20091;-70
2021/11/18 11:12:30;;;;;;;18.65;12.65;;;;;;;11.44;70.97;101279.06;4918191;29;20095;-70
2021/11/18 11:15:32;;;;;;;154.65;84.57;;;;;;;11.21;70.22;101282.28;4931728;29;20501;-70
2021/11/18 11:18:15;;;;;;;25.10;17.55;;;;;;;11.45;71.18;101272.19;4932233;29;20035;-70
2021/11/18 11:20:59;;;;;;;19.67;13.18;;;;;;;11.73;70.37;101263.13;4932207;29;20079;-70
2021/11/18 11:23:37;;;;;;;19.27;12.88;;;;;;;11.71;69.06;101260.44;4932045;29;20129;-70